createdAt,value
2019-06-26T00:02:11.809Z,100.00
2019-06-26T00:04:42.193Z,100.00
2019-06-26T00:07:12.628Z,100.00
2019-06-26T00:09:42.984Z,100.00
2019-06-26T00:12:13.412Z,100.00
2019-06-26T00:14:43.879Z,100.00
2019-06-26T00:17:14.233Z,100.00
2019-06-26T00:19:44.585Z,100.00
2019-06-26T00:22:14.969Z,100.00
2019-06-26T00:24:45.409Z,100.00
2019-06-26T00:27:15.743Z,100.00
2019-06-26T00:29:46.163Z,100.00
2019-06-26T00:32:16.509Z,100.00
2019-06-26T00:34:46.845Z,100.00
2019-06-26T00:37:17.232Z,100.00
2019-06-26T00:39:47.606Z,100.00
2019-06-26T00:42:17.965Z,100.00
2019-06-26T00:44:48.462Z,100.00
2019-06-26T00:47:18.822Z,100.00
2019-06-26T00:49:49.265Z,100.00
2019-06-26T00:52:20.905Z,100.00
2019-06-26T00:54:51.377Z,100.00
2019-06-26T00:57:21.719Z,100.00
2019-06-26T00:59:52.264Z,100.00
2019-06-26T01:02:22.693Z,100.00
2019-06-26T01:04:54.743Z,100.00
2019-06-26T01:07:25.249Z,100.00
2019-06-26T01:09:55.600Z,100.00
2019-06-26T01:12:25.968Z,100.00
2019-06-26T01:14:56.529Z,100.00
2019-06-26T01:17:26.888Z,100.00
2019-06-26T01:19:57.240Z,100.00
2019-06-26T01:22:27.643Z,100.00
2019-06-26T01:24:58.013Z,100.00
2019-06-26T01:27:28.765Z,100.00
2019-06-26T01:29:59.255Z,100.00
2019-06-26T01:32:29.602Z,100.00
2019-06-26T01:34:59.951Z,100.00
2019-06-26T01:37:30.364Z,100.00
2019-06-26T01:40:00.714Z,100.00
2019-06-26T01:42:31.166Z,100.00
2019-06-26T01:45:03.635Z,100.00
2019-06-26T01:47:33.978Z,100.00
2019-06-26T01:50:04.437Z,100.00
2019-06-26T01:52:35.960Z,100.00
2019-06-26T01:55:06.596Z,100.00
2019-06-26T01:57:36.979Z,100.00
2019-06-26T02:00:07.823Z,100.00
2019-06-26T02:02:38.246Z,100.00
2019-06-26T02:05:08.995Z,100.00
2019-06-26T02:07:39.360Z,100.00
2019-06-26T02:10:10.209Z,100.00
2019-06-26T02:12:40.610Z,100.00
2019-06-26T02:15:11.081Z,100.00
2019-06-26T02:17:41.433Z,100.00
2019-06-26T02:20:11.998Z,100.00
2019-06-26T02:22:42.333Z,100.00
2019-06-26T02:25:12.993Z,100.00
2019-06-26T02:27:43.478Z,100.00
2019-06-26T02:30:14.450Z,100.00
2019-06-26T02:32:44.803Z,100.00
2019-06-26T02:35:15.335Z,100.00
2019-06-26T02:37:45.679Z,100.00
2019-06-26T02:40:16.555Z,100.00
2019-06-26T02:42:46.932Z,100.00
2019-06-26T02:45:17.485Z,100.00
2019-06-26T02:47:47.832Z,100.00
2019-06-26T02:50:18.353Z,100.00
2019-06-26T02:52:49.724Z,100.00
2019-06-26T02:55:20.146Z,100.00
2019-06-26T02:57:50.505Z,100.00
2019-06-26T03:00:20.857Z,100.00
2019-06-26T03:02:51.275Z,100.00
2019-06-26T03:05:21.766Z,100.00
2019-06-26T03:07:52.177Z,100.00
2019-06-26T03:10:22.615Z,100.00
2019-06-26T03:12:52.974Z,100.00
2019-06-26T03:15:23.318Z,100.00
2019-06-26T03:17:55.574Z,100.00
2019-06-26T03:20:28.686Z,100.00
2019-06-26T03:22:59.031Z,100.00
2019-06-26T03:25:29.511Z,100.00
2019-06-26T03:27:59.935Z,100.00
2019-06-26T03:30:30.289Z,100.00
2019-06-26T03:33:03.264Z,100.00
2019-06-26T03:35:33.635Z,100.00
2019-06-26T03:38:03.997Z,100.00
2019-06-26T03:40:34.433Z,100.00
2019-06-26T03:43:04.807Z,100.00
2019-06-26T03:45:35.145Z,100.00
2019-06-26T03:48:05.836Z,100.00
2019-06-26T03:50:36.172Z,100.00
2019-06-26T03:53:07.673Z,100.00
2019-06-26T03:55:38.141Z,100.00
2019-06-26T03:58:08.482Z,100.00
2019-06-26T04:00:43.115Z,100.00
2019-06-26T04:03:13.512Z,100.00
2019-06-26T04:05:43.849Z,100.00
2019-06-26T04:08:14.195Z,100.00
2019-06-26T04:10:44.625Z,100.00
2019-06-26T04:13:15.000Z,100.00
2019-06-26T04:15:45.352Z,100.00
2019-06-26T04:18:15.745Z,100.00
2019-06-26T04:20:46.092Z,100.00
2019-06-26T04:23:16.452Z,100.00
2019-06-26T04:25:46.878Z,100.00
2019-06-26T04:28:17.206Z,100.00
2019-06-26T04:30:47.564Z,100.00
2019-06-26T04:33:17.959Z,100.00
2019-06-26T04:35:48.310Z,100.00
2019-06-26T04:38:18.769Z,100.00
2019-06-26T04:40:49.207Z,100.00
2019-06-26T04:43:19.552Z,100.00
2019-06-26T04:45:58.141Z,99.78
2019-06-26T04:48:21.963Z,100.00
2019-06-26T04:50:52.363Z,98.92
2019-06-26T04:53:23.794Z,97.53
2019-06-26T04:55:55.932Z,95.35
2019-06-26T04:58:26.277Z,90.12
2019-06-26T05:00:56.624Z,89.05
2019-06-26T05:03:27.010Z,86.74
2019-06-26T05:05:57.356Z,87.67
2019-06-26T05:08:27.691Z,88.34
2019-06-26T05:10:58.132Z,87.52
2019-06-26T05:13:31.302Z,87.69
2019-06-26T05:16:14.501Z,82.04
2019-06-26T05:18:33.727Z,81.39
2019-06-26T05:21:04.194Z,80.85
2019-06-26T05:23:34.607Z,79.48
2019-06-26T05:26:05.047Z,79.55
2019-06-26T05:28:35.386Z,79.05
2019-06-26T05:31:05.719Z,79.85
2019-06-26T05:33:36.124Z,80.02
2019-06-26T05:36:06.475Z,79.81
2019-06-26T05:38:36.824Z,78.87
2019-06-26T05:41:07.359Z,77.90
2019-06-26T05:43:37.908Z,77.30
2019-06-26T05:46:08.272Z,74.56
2019-06-26T05:48:38.675Z,73.15
2019-06-26T05:51:09.051Z,73.15
2019-06-26T05:53:40.529Z,73.47
2019-06-26T05:56:10.980Z,76.43
2019-06-26T05:58:41.335Z,79.32
2019-06-26T06:01:11.812Z,79.43
2019-06-26T06:03:42.235Z,79.45
2019-06-26T06:06:12.707Z,78.00
2019-06-26T06:08:43.200Z,78.72
2019-06-26T06:11:13.662Z,80.64
2019-06-26T06:13:44.094Z,80.35
2019-06-26T06:16:14.446Z,82.23
2019-06-26T06:18:44.832Z,80.15
2019-06-26T06:21:15.173Z,82.91
2019-06-26T06:23:45.687Z,81.99
2019-06-26T06:26:16.147Z,80.03
2019-06-26T06:28:46.498Z,78.70
2019-06-26T06:31:16.837Z,81.81
2019-06-26T06:33:47.266Z,78.40
2019-06-26T06:36:17.705Z,79.53
2019-06-26T06:38:48.085Z,75.35
2019-06-26T06:41:18.626Z,75.72
2019-06-26T06:43:48.980Z,79.91
2019-06-26T06:46:19.430Z,78.60
2019-06-26T06:48:49.840Z,76.42
2019-06-26T06:51:20.194Z,78.61
2019-06-26T06:53:51.472Z,74.90
2019-06-26T06:56:21.910Z,74.84
2019-06-26T06:58:52.320Z,76.53
2019-06-26T07:01:22.722Z,72.41
2019-06-26T07:03:53.105Z,73.44
2019-06-26T07:06:23.451Z,75.05
2019-06-26T07:08:53.792Z,72.05
2019-06-26T07:11:24.205Z,75.00
2019-06-26T07:13:54.556Z,78.17
2019-06-26T07:16:24.919Z,72.16
2019-06-26T07:18:55.301Z,74.83
2019-06-26T07:21:25.666Z,71.72
2019-06-26T07:23:56.023Z,73.39
2019-06-26T07:26:26.463Z,74.32
2019-06-26T07:28:56.850Z,71.65
2019-06-26T07:31:27.175Z,69.42
2019-06-26T07:33:57.578Z,70.32
2019-06-26T07:36:27.916Z,66.35
2019-06-26T07:38:58.273Z,68.94
2019-06-26T07:41:28.700Z,71.58
2019-06-26T07:43:59.057Z,70.43
2019-06-26T07:46:29.427Z,73.39
2019-06-26T07:48:59.832Z,75.02
2019-06-26T07:51:30.163Z,74.34
2019-06-26T07:54:01.720Z,74.94
2019-06-26T07:56:32.327Z,73.07
2019-06-26T07:59:02.680Z,72.14
2019-06-26T08:01:33.028Z,70.42
2019-06-26T08:04:03.444Z,69.52
2019-06-26T08:06:33.803Z,66.50
2019-06-26T08:09:05.170Z,65.91
2019-06-26T08:11:35.637Z,65.39
2019-06-26T08:14:06.000Z,67.57
2019-06-26T08:16:36.407Z,63.95
2019-06-26T08:19:06.825Z,62.62
2019-06-26T08:21:37.205Z,62.56
2019-06-26T08:24:07.620Z,66.88
2019-06-26T08:26:38.060Z,63.90
2019-06-26T08:29:08.429Z,62.68
2019-06-26T08:31:38.785Z,63.11
2019-06-26T08:34:09.165Z,67.05
2019-06-26T08:36:39.533Z,68.54
2019-06-26T08:39:14.172Z,64.07
2019-06-26T08:41:44.547Z,69.31
2019-06-26T08:44:14.887Z,65.98
2019-06-26T08:46:45.336Z,67.48
2019-06-26T08:49:25.760Z,66.59
2019-06-26T08:51:47.760Z,64.88
2019-06-26T08:54:19.160Z,64.96
2019-06-26T08:56:49.523Z,65.55
2019-06-26T08:59:19.863Z,64.03
2019-06-26T09:01:50.332Z,63.66
2019-06-26T09:04:20.686Z,63.76
2019-06-26T09:06:51.046Z,62.16
2019-06-26T09:09:21.425Z,59.48
2019-06-26T09:11:51.765Z,61.13
2019-06-26T09:14:22.148Z,60.39
2019-06-26T09:16:52.652Z,60.35
2019-06-26T09:19:23.023Z,62.57
2019-06-26T09:21:53.392Z,65.36
2019-06-26T09:24:26.545Z,64.10
2019-06-26T09:26:56.885Z,64.65
2019-06-26T09:29:27.251Z,61.01
2019-06-26T09:32:00.824Z,66.23
2019-06-26T09:34:31.143Z,62.26
2019-06-26T09:37:01.505Z,64.85
2019-06-26T09:39:31.903Z,66.00
2019-06-26T09:42:02.240Z,63.50
2019-06-26T09:44:32.572Z,64.39
2019-06-26T09:47:02.992Z,62.67
2019-06-26T09:49:33.349Z,61.03
2019-06-26T09:52:03.695Z,59.28
2019-06-26T09:54:35.204Z,61.38
2019-06-26T09:57:05.559Z,59.74
2019-06-26T09:59:35.906Z,60.22
2019-06-26T10:02:06.381Z,62.23
2019-06-26T10:04:36.730Z,60.69
2019-06-26T10:07:07.108Z,61.01
2019-06-26T10:09:37.527Z,64.44
2019-06-26T10:12:07.978Z,63.35
2019-06-26T10:14:47.199Z,61.91
2019-06-26T10:17:10.469Z,61.35
2019-06-26T10:19:40.803Z,61.76
2019-06-26T10:22:11.157Z,63.37
2019-06-26T10:24:41.531Z,62.49
2019-06-26T10:27:11.864Z,62.83
2019-06-26T10:29:42.212Z,61.06
2019-06-26T10:32:12.628Z,58.26
2019-06-26T10:34:42.976Z,54.63
2019-06-26T10:37:13.319Z,57.06
2019-06-26T10:39:43.714Z,55.26
2019-06-26T10:42:14.061Z,56.33
2019-06-26T10:44:44.411Z,57.28
2019-06-26T10:47:14.861Z,59.89
2019-06-26T10:49:45.188Z,55.68
2019-06-26T10:52:15.555Z,58.63
2019-06-26T10:54:46.845Z,55.88
2019-06-26T10:57:17.200Z,54.69
2019-06-26T10:59:47.547Z,50.97
2019-06-26T11:02:17.963Z,49.73
2019-06-26T11:04:48.318Z,50.42
2019-06-26T11:07:18.675Z,52.91
2019-06-26T11:09:49.072Z,52.67
2019-06-26T11:12:19.410Z,51.13
2019-06-26T11:14:49.757Z,54.67
2019-06-26T11:17:20.172Z,54.63
2019-06-26T11:19:50.520Z,56.16
2019-06-26T11:22:20.857Z,56.18
2019-06-26T11:24:51.241Z,58.07
2019-06-26T11:27:21.643Z,55.39
2019-06-26T11:29:51.987Z,57.78
2019-06-26T11:32:22.415Z,59.06
2019-06-26T11:34:52.749Z,56.91
2019-06-26T11:37:23.358Z,57.57
2019-06-26T11:39:56.035Z,58.59
2019-06-26T11:42:26.387Z,58.42
2019-06-26T11:44:56.708Z,58.66
2019-06-26T11:47:27.728Z,57.86
2019-06-26T11:50:00.264Z,57.04
2019-06-26T11:52:30.101Z,57.11
2019-06-26T11:55:03.343Z,58.08
2019-06-26T11:57:33.660Z,60.48
2019-06-26T12:00:04.904Z,59.69
2019-06-26T12:02:35.378Z,61.05
2019-06-26T12:05:06.771Z,61.06
2019-06-26T12:07:37.135Z,61.45
2019-06-26T12:10:08.478Z,62.65
2019-06-26T12:12:38.956Z,65.96
2019-06-26T12:15:09.598Z,63.06
2019-06-26T12:17:40.028Z,65.32
2019-06-26T12:20:18.740Z,65.15
2019-06-26T12:22:42.605Z,65.54
2019-06-26T12:25:14.604Z,71.45
2019-06-26T12:27:45.055Z,76.47
2019-06-26T12:30:15.863Z,79.64
2019-06-26T12:33:01.529Z,82.80
2019-06-26T12:35:18.362Z,82.17
2019-06-26T12:37:48.674Z,83.15
2019-06-26T12:40:19.246Z,84.18
2019-06-26T12:42:49.677Z,86.21
2019-06-26T12:45:20.909Z,85.01
2019-06-26T12:47:51.725Z,86.15
2019-06-26T12:50:34.456Z,80.91
2019-06-26T12:52:56.208Z,83.08
2019-06-26T12:55:26.739Z,81.69
2019-06-26T12:58:11.735Z,81.51
2019-06-26T13:00:29.271Z,81.01
2019-06-26T13:02:59.794Z,83.80
2019-06-26T13:05:30.116Z,82.63
2019-06-26T13:08:00.448Z,88.34
2019-06-26T13:10:30.843Z,88.72
2019-06-26T13:13:01.180Z,85.53
2019-06-26T13:15:31.597Z,81.22
2019-06-26T13:18:02.079Z,83.40
2019-06-26T13:20:51.207Z,82.97
2019-06-26T13:23:07.024Z,79.56
2019-06-26T13:25:37.397Z,77.79
2019-06-26T13:28:07.731Z,74.45
2019-06-26T13:30:39.621Z,76.70
2019-06-26T13:33:10.033Z,76.43
2019-06-26T13:35:40.366Z,78.69
2019-06-26T13:38:10.708Z,70.43
2019-06-26T13:40:41.370Z,70.52
2019-06-26T13:43:11.935Z,70.32
2019-06-26T13:45:42.507Z,72.21
2019-06-26T13:48:13.074Z,70.61
2019-06-26T13:50:43.437Z,72.31
2019-06-26T13:53:13.774Z,74.70
2019-06-26T13:55:44.262Z,71.13
2019-06-26T13:58:14.582Z,72.09
2019-06-26T14:00:44.911Z,68.74
2019-06-26T14:03:15.442Z,71.20
2019-06-26T14:05:45.786Z,70.45
2019-06-26T14:08:16.194Z,73.29
2019-06-26T14:10:46.529Z,70.58
2019-06-26T14:13:19.547Z,73.23
2019-06-26T14:15:49.953Z,74.33
2019-06-26T14:18:20.327Z,75.26
2019-06-26T14:20:50.756Z,71.39
2019-06-26T14:23:24.806Z,71.39
2019-06-26T14:25:55.133Z,74.46
2019-06-26T14:28:25.502Z,71.99
2019-06-26T14:30:56.066Z,74.41
2019-06-26T14:33:26.420Z,77.20
2019-06-26T14:35:56.778Z,83.96
2019-06-26T14:38:27.141Z,76.64
2019-06-26T14:40:57.465Z,76.64
2019-06-26T14:43:32.755Z,76.53
2019-06-26T14:46:03.187Z,84.76
2019-06-26T14:48:33.532Z,85.86
2019-06-26T14:51:03.861Z,90.64
2019-06-26T14:53:34.248Z,89.24
2019-06-26T14:56:04.710Z,90.11
2019-06-26T14:58:36.398Z,92.71
2019-06-26T15:01:07.071Z,95.52
2019-06-26T15:03:37.412Z,99.46
2019-06-26T15:06:16.360Z,97.70
2019-06-26T15:08:39.876Z,100.00
2019-06-26T15:11:10.287Z,100.00
2019-06-26T15:13:40.775Z,98.33
2019-06-26T15:16:11.204Z,99.27
2019-06-26T15:18:41.539Z,100.00
2019-06-26T15:21:11.903Z,100.00
2019-06-26T15:23:42.279Z,100.00
2019-06-26T15:26:13.883Z,100.00
2019-06-26T15:31:28.780Z,100.00
2019-06-26T15:33:59.569Z,100.00
2019-06-26T15:36:30.114Z,100.00
2019-06-26T15:39:00.625Z,100.00
2019-06-26T15:41:31.055Z,100.00
2019-06-26T15:44:01.533Z,100.00
2019-06-26T15:46:32.245Z,100.00
2019-06-26T15:49:02.760Z,100.00
2019-06-26T15:51:33.262Z,100.00
2019-06-26T15:54:04.031Z,100.00
2019-06-26T15:56:34.825Z,100.00
2019-06-26T15:59:05.583Z,100.00
2019-06-26T16:01:36.124Z,100.00
2019-06-26T16:04:06.999Z,100.00
2019-06-26T16:06:38.390Z,100.00
2019-06-26T16:09:08.978Z,100.00
2019-06-26T16:11:39.391Z,100.00
2019-06-26T16:14:09.818Z,100.00
2019-06-26T16:16:42.049Z,100.00
2019-06-26T16:19:16.296Z,100.00
2019-06-26T16:21:46.685Z,100.00
2019-06-26T16:24:17.598Z,100.00
2019-06-26T16:26:48.586Z,100.00
2019-06-26T16:29:19.023Z,100.00
2019-06-26T16:31:50.116Z,100.00
2019-06-26T16:34:20.526Z,100.00
2019-06-26T16:36:50.962Z,100.00
2019-06-26T16:39:23.349Z,100.00
2019-06-26T16:41:53.844Z,100.00
2019-06-26T16:44:30.837Z,100.00
2019-06-26T16:47:01.535Z,100.00
2019-06-26T16:49:32.087Z,100.00
2019-06-26T16:52:04.190Z,100.00
2019-06-26T16:54:34.922Z,100.00
2019-06-26T16:57:05.927Z,100.00
2019-06-26T16:59:36.468Z,100.00
2019-06-26T17:02:07.281Z,100.00
2019-06-26T17:04:37.970Z,100.00
2019-06-26T17:07:08.364Z,100.00
2019-06-26T17:09:38.799Z,100.00
2019-06-26T17:12:09.323Z,100.00
2019-06-26T17:14:39.837Z,100.00
2019-06-26T17:17:10.372Z,100.00
2019-06-26T17:19:40.824Z,100.00
2019-06-26T17:22:29.889Z,100.00
2019-06-26T17:25:19.650Z,100.00
2019-06-26T17:28:09.278Z,100.00
2019-06-26T17:30:43.682Z,100.00
2019-06-26T17:33:14.207Z,100.00
2019-06-26T17:35:45.057Z,100.00
2019-06-26T17:38:16.094Z,100.00
2019-06-26T17:40:46.644Z,100.00
2019-06-26T17:43:17.330Z,100.00
2019-06-26T17:45:48.353Z,100.00
2019-06-26T17:48:18.797Z,100.00
2019-06-26T17:50:49.320Z,100.00
2019-06-26T17:53:22.019Z,100.00
2019-06-26T17:55:52.199Z,100.00
2019-06-26T17:58:25.385Z,100.00
2019-06-26T18:00:54.824Z,100.00
2019-06-26T18:03:25.353Z,100.00
2019-06-26T18:05:55.893Z,100.00
2019-06-26T18:08:26.385Z,100.00
2019-06-26T18:10:56.829Z,100.00
2019-06-26T18:13:27.615Z,100.00
2019-06-26T18:15:58.089Z,100.00
2019-06-26T18:18:28.546Z,100.00
2019-06-26T18:20:59.170Z,100.00
2019-06-26T18:23:38.317Z,100.00
2019-06-26T18:26:12.334Z,100.00
2019-06-26T18:28:36.257Z,100.00
2019-06-26T18:31:06.796Z,100.00
2019-06-26T18:33:37.777Z,100.00
2019-06-26T18:36:08.395Z,100.00
2019-06-26T18:38:38.921Z,100.00
2019-06-26T18:41:12.481Z,100.00
2019-06-26T18:43:50.348Z,100.00
2019-06-26T18:46:25.329Z,100.00
2019-06-26T18:48:56.010Z,100.00
2019-06-26T18:51:27.088Z,100.00
2019-06-26T18:54:00.992Z,100.00
2019-06-26T18:56:30.974Z,100.00
2019-06-26T18:59:02.352Z,100.00
2019-06-26T19:01:33.568Z,100.00
2019-06-26T19:04:12.696Z,100.00
2019-06-26T19:06:59.614Z,100.00
2019-06-26T19:09:17.690Z,100.00
2019-06-26T19:11:50.925Z,100.00
2019-06-26T19:14:24.742Z,100.00
2019-06-26T19:16:56.627Z,100.00
2019-06-26T19:19:29.092Z,100.00
2019-06-26T19:22:07.959Z,100.00
2019-06-26T19:24:42.944Z,100.00
2019-06-26T19:27:13.953Z,100.00
2019-06-26T19:29:48.087Z,100.00
2019-06-26T19:32:18.918Z,100.00
2019-06-26T19:34:49.413Z,100.00
2019-06-26T19:37:19.878Z,100.00
2019-06-26T19:39:50.515Z,100.00
2019-06-26T19:42:21.601Z,100.00
2019-06-26T19:44:53.277Z,100.00
2019-06-26T19:47:24.115Z,100.00
2019-06-26T19:49:55.080Z,100.00
2019-06-26T19:52:25.489Z,100.00
2019-06-26T19:54:56.088Z,100.00
2019-06-26T19:57:26.865Z,100.00
2019-06-26T19:59:57.950Z,100.00
2019-06-26T20:02:28.529Z,100.00
2019-06-26T20:05:33.608Z,100.00
2019-06-26T20:08:54.458Z,100.00
2019-06-26T20:12:26.539Z,100.00
2019-06-26T20:16:43.674Z,100.00
2019-06-26T20:21:23.876Z,100.00
2019-06-26T20:35:09.887Z,100.00
2019-06-26T20:38:10.686Z,100.00
2019-06-26T20:41:22.606Z,100.00
2019-06-26T20:44:39.707Z,100.00
2019-06-26T20:47:50.207Z,100.00
2019-06-26T20:50:55.493Z,100.00
2019-06-26T20:53:55.703Z,100.00
2019-06-26T20:57:23.267Z,100.00
2019-06-26T21:06:00.802Z,100.00
2019-06-26T21:14:12.538Z,100.00
2019-06-26T21:17:16.522Z,100.00
2019-06-26T21:20:31.939Z,100.00
2019-06-26T21:29:55.544Z,100.00
2019-06-26T21:32:59.941Z,100.00
2019-06-26T21:39:05.843Z,100.00
2019-06-26T21:41:46.118Z,100.00
2019-06-26T21:44:58.991Z,100.00
2019-06-26T21:47:45.376Z,100.00
2019-06-26T21:50:28.717Z,100.00
2019-06-26T21:53:00.348Z,100.00
2019-06-26T21:55:34.613Z,100.00
2019-06-26T21:58:03.482Z,100.00
2019-06-26T22:00:37.462Z,100.00
2019-06-26T22:03:08.961Z,100.00
2019-06-26T22:05:39.583Z,100.00
2019-06-26T22:08:11.738Z,100.00
2019-06-26T22:10:42.661Z,100.00
2019-06-26T22:13:13.598Z,100.00
2019-06-26T22:15:45.843Z,100.00
2019-06-26T22:18:16.383Z,100.00
2019-06-26T22:20:47.644Z,100.00
2019-06-26T22:23:19.584Z,100.00
2019-06-26T22:25:51.374Z,100.00
2019-06-26T22:28:28.275Z,100.00
2019-06-26T22:30:59.701Z,100.00
2019-06-26T22:33:30.696Z,100.00
2019-06-26T22:36:02.245Z,100.00
2019-06-26T22:38:32.653Z,100.00
2019-06-26T22:41:03.189Z,100.00
2019-06-26T22:43:33.720Z,100.00
2019-06-26T22:46:04.210Z,100.00
2019-06-26T22:48:35.155Z,100.00
2019-06-26T22:51:05.755Z,100.00
2019-06-26T22:53:36.232Z,100.00
2019-06-26T22:56:08.289Z,100.00
2019-06-26T22:58:39.214Z,100.00
2019-06-26T23:01:09.861Z,100.00
2019-06-26T23:03:40.637Z,100.00
2019-06-26T23:06:11.191Z,100.00
2019-06-26T23:08:41.589Z,100.00
2019-06-26T23:11:12.778Z,100.00
2019-06-26T23:13:44.142Z,100.00
2019-06-26T23:16:14.947Z,100.00
2019-06-26T23:18:45.444Z,100.00
2019-06-26T23:21:15.937Z,100.00
2019-06-26T23:23:46.780Z,100.00
2019-06-26T23:26:23.988Z,100.00
2019-06-26T23:28:50.701Z,100.00
2019-06-26T23:31:21.095Z,100.00
2019-06-26T23:33:52.373Z,100.00
2019-06-26T23:36:22.839Z,100.00
2019-06-26T23:38:53.621Z,100.00
2019-06-26T23:41:24.568Z,100.00
2019-06-26T23:43:55.327Z,100.00
2019-06-26T23:46:26.230Z,100.00
2019-06-26T23:48:57.563Z,100.00
2019-06-26T23:51:28.054Z,100.00
2019-06-26T23:53:58.560Z,100.00
2019-06-26T23:56:39.935Z,100.00
2019-06-26T23:59:02.036Z,100.00
